createdAt,value
2018-06-16T00:00:19.835Z,15.40
2018-06-16T00:02:48.716Z,15.40
2018-06-16T00:05:17.857Z,15.40
2018-06-16T00:07:46.728Z,15.30
2018-06-16T00:10:15.655Z,15.30
2018-06-16T00:12:44.520Z,15.30
2018-06-16T00:15:13.371Z,15.30
2018-06-16T00:17:42.191Z,15.20
2018-06-16T00:22:39.475Z,15.30
2018-06-16T00:25:08.511Z,15.20
2018-06-16T00:27:37.353Z,15.20
2018-06-16T00:30:06.251Z,15.30
2018-06-16T00:32:35.188Z,15.30
2018-06-16T00:35:04.092Z,15.30
2018-06-16T00:37:32.939Z,15.20
2018-06-16T00:40:01.833Z,15.30
2018-06-16T00:42:30.711Z,15.30
2018-06-16T00:44:59.916Z,15.30
2018-06-16T00:47:28.739Z,15.30
2018-06-16T00:49:57.595Z,15.20
2018-06-16T00:52:26.484Z,15.10
2018-06-16T00:54:55.353Z,15.10
2018-06-16T00:57:35.343Z,15.10
2018-06-16T01:00:04.660Z,15.10
2018-06-16T01:02:33.456Z,15.00
2018-06-16T01:05:02.379Z,15.00
2018-06-16T01:07:31.256Z,14.90
2018-06-16T01:10:00.170Z,14.90
2018-06-16T01:12:29.059Z,14.90
2018-06-16T01:14:57.927Z,14.90
2018-06-16T01:17:26.840Z,14.80
2018-06-16T01:19:55.850Z,14.80
2018-06-16T01:22:24.713Z,14.80
2018-06-16T01:24:53.592Z,14.80
2018-06-16T01:27:22.460Z,14.70
2018-06-16T01:29:51.316Z,14.70
2018-06-16T01:32:20.401Z,14.70
2018-06-16T01:34:49.351Z,14.60
2018-06-16T01:37:18.600Z,14.60
2018-06-16T01:39:47.484Z,14.60
2018-06-16T01:42:16.319Z,14.50
2018-06-16T01:44:45.220Z,14.50
2018-06-16T01:47:14.137Z,14.50
2018-06-16T01:49:43.006Z,14.50
2018-06-16T01:52:11.980Z,14.50
2018-06-16T01:54:40.784Z,14.40
2018-06-16T01:57:09.744Z,14.40
2018-06-16T01:59:38.555Z,14.40
2018-06-16T02:02:07.448Z,14.40
2018-06-16T02:04:36.251Z,14.30
2018-06-16T02:07:05.167Z,14.30
2018-06-16T02:09:33.971Z,14.30
2018-06-16T02:12:02.836Z,14.30
2018-06-16T02:14:31.715Z,14.20
2018-06-16T02:17:00.558Z,14.20
2018-06-16T02:19:29.456Z,14.10
2018-06-16T02:21:58.244Z,14.10
2018-06-16T02:24:27.100Z,14.10
2018-06-16T02:29:24.499Z,14.00
2018-06-16T02:31:53.320Z,14.00
2018-06-16T02:34:22.123Z,13.90
2018-06-16T02:36:51.031Z,13.90
2018-06-16T02:39:19.876Z,13.80
2018-06-16T02:41:48.789Z,13.80
2018-06-16T02:44:17.580Z,13.70
2018-06-16T02:46:46.536Z,13.70
2018-06-16T02:49:15.347Z,13.70
2018-06-16T02:51:44.311Z,13.70
2018-06-16T02:54:13.225Z,13.70
2018-06-16T02:56:42.107Z,13.60
2018-06-16T02:59:11.012Z,13.70
2018-06-16T03:01:39.813Z,13.60
2018-06-16T03:06:37.128Z,13.60
2018-06-16T03:09:07.656Z,13.70
2018-06-16T03:11:36.491Z,13.70
2018-06-16T03:16:33.732Z,13.70
2018-06-16T03:19:05.804Z,13.80
2018-06-16T03:21:34.668Z,13.80
2018-06-16T03:24:03.512Z,13.80
2018-06-16T03:26:32.409Z,13.90
2018-06-16T03:29:01.245Z,13.90
2018-06-16T03:31:30.118Z,13.90
2018-06-16T03:33:58.967Z,13.90
2018-06-16T03:36:27.901Z,14.00
2018-06-16T03:38:56.704Z,14.00
2018-06-16T03:41:25.551Z,14.00
2018-06-16T03:43:54.427Z,14.00
2018-06-16T03:46:23.284Z,14.00
2018-06-16T03:48:52.112Z,14.00
2018-06-16T03:51:20.924Z,14.00
2018-06-16T03:53:49.768Z,14.10
2018-06-16T03:56:18.621Z,14.10
2018-06-16T03:58:47.472Z,14.20
2018-06-16T04:01:16.332Z,14.30
2018-06-16T04:03:45.193Z,14.30
2018-06-16T04:06:14.099Z,14.30
2018-06-16T04:11:11.371Z,14.40
2018-06-16T04:13:40.215Z,14.50
2018-06-16T04:16:09.051Z,14.50
2018-06-16T04:18:37.968Z,14.50
2018-06-16T04:21:06.956Z,14.60
2018-06-16T04:23:36.135Z,14.60
2018-06-16T04:26:05.163Z,14.70
2018-06-16T04:28:34.172Z,14.80
2018-06-16T04:31:03.112Z,14.80
2018-06-16T04:33:31.987Z,14.80
2018-06-16T04:38:29.451Z,15.10
2018-06-16T04:43:26.885Z,15.40
2018-06-16T04:45:55.884Z,15.40
2018-06-16T04:48:24.820Z,15.50
2018-06-16T04:50:53.832Z,15.60
2018-06-16T04:53:22.713Z,15.70
2018-06-16T04:55:51.944Z,15.80
2018-06-16T04:58:20.887Z,15.90
2018-06-16T05:00:49.817Z,16.00
2018-06-16T05:03:18.724Z,16.10
2018-06-16T05:05:47.600Z,16.30
2018-06-16T05:08:16.524Z,16.50
2018-06-16T05:10:45.398Z,16.60
2018-06-16T05:13:14.347Z,16.60
2018-06-16T05:15:43.178Z,16.60
2018-06-16T05:18:12.096Z,16.70
2018-06-16T05:20:41.055Z,16.80
2018-06-16T05:23:09.964Z,17.00
2018-06-16T05:25:38.891Z,17.10
2018-06-16T05:30:36.243Z,17.20
2018-06-16T05:33:05.169Z,17.30
2018-06-16T05:35:34.032Z,17.50
2018-06-16T05:38:02.951Z,17.60
2018-06-16T05:40:31.825Z,17.80
2018-06-16T05:43:00.656Z,17.90
2018-06-16T05:45:29.513Z,18.00
2018-06-16T05:47:58.388Z,18.10
2018-06-16T05:50:27.528Z,18.10
2018-06-16T05:52:56.496Z,18.20
2018-06-16T05:55:25.360Z,18.30
2018-06-16T05:57:54.265Z,18.50
2018-06-16T06:00:23.194Z,18.60
2018-06-16T06:02:52.264Z,18.70
2018-06-16T06:05:21.481Z,18.80
2018-06-16T06:07:50.373Z,18.90
2018-06-16T06:10:20.347Z,19.00
2018-06-16T06:12:49.476Z,19.10
2018-06-16T06:15:18.656Z,19.30
2018-06-16T06:17:47.777Z,19.40
2018-06-16T06:22:45.571Z,19.60
2018-06-16T06:25:14.723Z,19.80
2018-06-16T06:27:44.201Z,19.90
2018-06-16T06:30:13.625Z,20.00
2018-06-16T06:32:42.844Z,20.00
2018-06-16T06:35:11.748Z,19.80
2018-06-16T06:37:40.730Z,19.70
2018-06-16T06:40:09.778Z,19.60
2018-06-16T06:42:39.332Z,19.70
2018-06-16T06:45:08.171Z,19.80
2018-06-16T06:47:37.222Z,19.80
2018-06-16T06:50:06.155Z,19.90
2018-06-16T06:52:35.183Z,20.00
2018-06-16T06:55:04.104Z,20.10
2018-06-16T06:57:33.208Z,20.20
2018-06-16T07:00:02.194Z,20.40
2018-06-16T07:02:31.147Z,20.60
2018-06-16T07:04:59.970Z,20.90
2018-06-16T07:09:57.363Z,21.10
2018-06-16T07:12:26.300Z,21.20
2018-06-16T07:14:55.319Z,21.30
2018-06-16T07:19:52.719Z,21.60
2018-06-16T07:22:21.708Z,21.80
2018-06-16T07:24:50.658Z,21.90
2018-06-16T07:27:19.722Z,22.00
2018-06-16T07:29:48.605Z,22.30
2018-06-16T07:32:17.520Z,22.40
2018-06-16T07:34:46.351Z,22.50
2018-06-16T07:37:15.232Z,22.60
2018-06-16T07:42:12.656Z,22.60
2018-06-16T07:44:41.499Z,22.50
2018-06-16T07:47:11.024Z,22.60
2018-06-16T07:49:39.824Z,22.70
2018-06-16T07:52:08.760Z,22.80
2018-06-16T07:57:06.258Z,23.10
2018-06-16T07:59:35.181Z,23.30
2018-06-16T08:02:04.147Z,23.40
2018-06-16T08:04:33.006Z,23.50
2018-06-16T08:07:01.861Z,23.60
2018-06-16T08:09:30.688Z,23.70
2018-06-16T08:11:59.605Z,23.70
2018-06-16T08:14:28.428Z,23.80
2018-06-16T08:16:57.357Z,23.80
2018-06-16T08:19:26.149Z,23.70
2018-06-16T08:21:55.209Z,23.80
2018-06-16T08:24:24.036Z,23.90
2018-06-16T08:26:52.915Z,24.00
2018-06-16T08:29:21.919Z,24.20
2018-06-16T08:31:50.716Z,24.40
2018-06-16T08:36:51.948Z,24.40
2018-06-16T08:39:20.939Z,24.40
2018-06-16T08:41:49.848Z,24.60
2018-06-16T08:44:18.741Z,24.70
2018-06-16T08:46:47.636Z,24.60
2018-06-16T08:49:16.488Z,24.70
2018-06-16T08:51:45.704Z,24.70
2018-06-16T08:54:14.576Z,24.90
2018-06-16T08:56:43.581Z,25.10
2018-06-16T08:59:12.439Z,25.20
2018-06-16T09:01:41.450Z,25.40
2018-06-16T09:04:10.308Z,25.60
2018-06-16T09:06:39.272Z,25.70
2018-06-16T09:09:12.862Z,25.80
2018-06-16T09:11:42.365Z,25.90
2018-06-16T09:14:13.332Z,26.10
2018-06-16T09:19:10.771Z,26.30
2018-06-16T09:21:39.597Z,26.30
2018-06-16T09:24:08.511Z,26.40
2018-06-16T09:26:45.818Z,26.50
2018-06-16T09:29:18.135Z,26.60
2018-06-16T09:31:48.336Z,26.80
2018-06-16T09:34:17.167Z,26.80
2018-06-16T09:36:50.503Z,27.00
2018-06-16T09:39:19.448Z,27.20
2018-06-16T09:41:48.872Z,27.30
2018-06-16T09:44:18.682Z,27.40
2018-06-16T09:46:48.484Z,27.50
2018-06-16T09:49:17.343Z,27.60
2018-06-16T09:51:46.237Z,27.70
2018-06-16T09:54:15.224Z,27.80
2018-06-16T09:56:44.140Z,27.80
2018-06-16T09:59:13.347Z,27.80
2018-06-16T10:01:42.248Z,28.10
2018-06-16T10:04:12.123Z,28.20
2018-06-16T10:06:41.204Z,28.00
2018-06-16T10:09:11.149Z,27.80
2018-06-16T10:11:40.493Z,27.60
2018-06-16T10:14:09.360Z,27.50
2018-06-16T10:16:39.265Z,27.50
2018-06-16T10:19:19.528Z,27.30
2018-06-16T10:24:18.279Z,27.20
2018-06-16T10:26:47.296Z,27.20
2018-06-16T10:29:22.710Z,27.20
2018-06-16T10:31:59.907Z,27.20
2018-06-16T10:34:28.839Z,27.20
2018-06-16T10:36:57.715Z,27.20
2018-06-16T10:39:26.563Z,27.20
2018-06-16T10:41:55.423Z,27.50
2018-06-16T10:44:24.280Z,27.50
2018-06-16T10:49:21.728Z,27.40
2018-06-16T10:51:50.832Z,27.40
2018-06-16T10:54:19.688Z,27.30
2018-06-16T10:56:48.576Z,27.20
2018-06-16T10:59:17.535Z,27.00
2018-06-16T11:01:46.393Z,26.80
2018-06-16T11:04:15.310Z,26.70
2018-06-16T11:06:45.536Z,26.60
2018-06-16T11:09:17.238Z,26.60
2018-06-16T11:11:48.839Z,26.50
2018-06-16T11:14:21.667Z,26.40
2018-06-16T11:16:52.992Z,26.40
2018-06-16T11:19:24.699Z,26.40
2018-06-16T11:21:53.863Z,26.40
2018-06-16T11:24:23.500Z,26.40
2018-06-16T11:26:52.680Z,26.40
2018-06-16T11:29:22.651Z,26.40
2018-06-16T11:31:51.567Z,26.40
2018-06-16T11:34:20.942Z,26.40
2018-06-16T11:36:52.600Z,26.30
2018-06-16T11:39:21.495Z,26.30
2018-06-16T11:41:50.459Z,26.20
2018-06-16T11:44:19.252Z,26.10
2018-06-16T11:46:48.179Z,26.10
2018-06-16T11:49:18.055Z,26.00
2018-06-16T11:51:47.027Z,26.00
2018-06-16T11:56:44.366Z,25.90
2018-06-16T11:59:13.328Z,25.90
2018-06-16T12:01:42.267Z,25.80
2018-06-16T12:04:11.150Z,25.70
2018-06-16T12:06:40.093Z,25.70
2018-06-16T12:09:11.357Z,25.70
2018-06-16T12:11:40.245Z,25.60
2018-06-16T12:14:09.880Z,25.60
2018-06-16T12:16:39.208Z,25.50
2018-06-16T12:21:39.123Z,25.40
2018-06-16T12:24:08.035Z,25.40
2018-06-16T12:26:36.943Z,25.30
2018-06-16T12:29:18.191Z,25.20
2018-06-16T12:31:48.212Z,25.10
2018-06-16T12:36:45.542Z,25.00
2018-06-16T12:39:15.233Z,24.90
2018-06-16T12:41:44.064Z,24.90
2018-06-16T12:44:13.040Z,24.80
2018-06-16T12:46:41.972Z,24.70
2018-06-16T12:49:10.898Z,24.70
2018-06-16T12:51:39.766Z,24.60
2018-06-16T12:54:09.451Z,24.50
2018-06-16T12:59:06.892Z,24.40
2018-06-16T13:01:35.757Z,24.30
2018-06-16T13:04:04.659Z,24.20
2018-06-16T13:06:33.516Z,24.10
2018-06-16T13:09:02.444Z,24.00
2018-06-16T13:11:31.255Z,23.80
2018-06-16T13:14:00.209Z,23.60
2018-06-16T13:16:29.115Z,23.20
2018-06-16T13:18:58.672Z,22.70
2018-06-16T13:21:27.594Z,22.30
2018-06-16T13:23:56.519Z,22.00
2018-06-16T13:26:25.332Z,21.80
2018-06-16T13:31:26.468Z,21.60
2018-06-16T13:33:55.631Z,21.40
2018-06-16T13:36:25.218Z,21.30
2018-06-16T13:38:54.159Z,21.10
2018-06-16T13:41:23.117Z,21.10
2018-06-16T13:43:52.191Z,21.00
2018-06-16T13:46:21.104Z,20.90
2018-06-16T13:48:50.094Z,20.90
2018-06-16T13:51:19.012Z,20.90
2018-06-16T13:54:02.604Z,21.00
2018-06-16T14:01:46.759Z,20.60
2018-06-16T14:04:15.631Z,20.60
2018-06-16T14:09:12.988Z,20.60
2018-06-16T14:11:41.952Z,20.50
2018-06-16T14:14:10.735Z,20.50
2018-06-16T14:16:39.774Z,20.40
2018-06-16T14:21:40.568Z,20.10
2018-06-16T14:24:09.411Z,20.10
2018-06-16T14:26:38.359Z,20.20
2018-06-16T14:29:07.236Z,20.30
2018-06-16T14:31:36.248Z,20.40
2018-06-16T14:34:05.135Z,20.50
2018-06-16T14:36:34.107Z,20.60
2018-06-16T14:39:03.152Z,20.80
2018-06-16T14:41:32.064Z,20.90
2018-06-16T14:44:00.968Z,20.90
2018-06-16T14:46:29.944Z,20.90
2018-06-16T14:49:02.577Z,20.90
2018-06-16T14:51:31.664Z,21.00
2018-06-16T14:54:00.636Z,21.00
2018-06-16T14:56:30.458Z,21.00
2018-06-16T14:58:59.463Z,21.10
2018-06-16T15:01:28.412Z,21.10
2018-06-16T15:03:57.412Z,21.20
2018-06-16T15:06:26.368Z,21.30
2018-06-16T15:08:55.404Z,21.30
2018-06-16T15:11:24.267Z,21.40
2018-06-16T15:13:53.854Z,21.40
2018-06-16T15:16:22.828Z,21.50
2018-06-16T15:18:51.655Z,21.50
2018-06-16T15:21:20.540Z,21.50
2018-06-16T15:23:49.457Z,21.50
2018-06-16T15:26:18.359Z,21.50
2018-06-16T15:28:47.300Z,21.50
2018-06-16T15:31:16.272Z,21.50
2018-06-16T15:33:45.192Z,21.50
2018-06-16T15:36:14.204Z,21.50
2018-06-16T15:38:43.172Z,21.60
2018-06-16T15:41:12.056Z,21.60
2018-06-16T15:43:41.612Z,21.60
2018-06-16T15:46:11.029Z,21.60
2018-06-16T15:48:48.943Z,21.60
2018-06-16T15:51:17.895Z,21.70
2018-06-16T15:53:47.105Z,21.70
2018-06-16T15:56:16.019Z,21.60
2018-06-16T15:58:44.928Z,21.70
2018-06-16T16:01:18.364Z,21.70
2018-06-16T16:03:47.253Z,21.70
2018-06-16T16:06:19.188Z,21.80
2018-06-16T16:08:57.056Z,21.70
2018-06-16T16:11:29.895Z,21.70
2018-06-16T16:14:02.616Z,21.80
2018-06-16T16:16:31.641Z,21.80
2018-06-16T16:19:00.727Z,21.90
2018-06-16T16:21:29.999Z,21.90
2018-06-16T16:23:58.933Z,21.90
2018-06-16T16:26:27.895Z,21.90
2018-06-16T16:28:56.779Z,21.90
2018-06-16T16:31:25.976Z,21.90
2018-06-16T16:33:55.043Z,21.90
2018-06-16T16:36:24.431Z,22.00
2018-06-16T16:38:53.361Z,22.00
2018-06-16T16:41:22.279Z,22.00
2018-06-16T16:43:51.228Z,22.10
2018-06-16T16:46:20.163Z,22.00
2018-06-16T16:48:49.581Z,22.00
2018-06-16T16:53:47.295Z,22.10
2018-06-16T16:56:16.383Z,22.10
2018-06-16T16:58:45.355Z,22.00
2018-06-16T17:01:14.275Z,22.00
2018-06-16T17:03:44.137Z,22.00
2018-06-16T17:06:13.162Z,22.00
2018-06-16T17:08:42.311Z,22.00
2018-06-16T17:11:11.692Z,22.00
2018-06-16T17:13:41.507Z,22.00
2018-06-16T17:16:10.740Z,22.00
2018-06-16T17:18:39.712Z,22.00
2018-06-16T17:21:09.332Z,22.00
2018-06-16T17:23:42.072Z,21.90
2018-06-16T17:26:15.859Z,21.90
2018-06-16T17:28:45.983Z,21.90
2018-06-16T17:31:14.981Z,21.90
2018-06-16T17:33:48.452Z,21.90
2018-06-16T17:36:17.324Z,21.90
2018-06-16T17:38:46.231Z,21.90
2018-06-16T17:41:15.271Z,21.90
2018-06-16T17:43:48.150Z,21.90
2018-06-16T17:46:25.188Z,21.90
2018-06-16T17:48:54.374Z,21.90
2018-06-16T17:51:23.330Z,22.00
2018-06-16T17:53:52.468Z,22.70
2018-06-16T17:56:21.296Z,23.60
2018-06-16T17:58:50.304Z,24.00
2018-06-16T18:01:19.207Z,24.00
2018-06-16T18:03:48.134Z,23.80
2018-06-16T18:06:17.034Z,23.50
2018-06-16T18:08:45.871Z,23.40
2018-06-16T18:11:14.719Z,23.30
2018-06-16T18:13:43.638Z,23.20
2018-06-16T18:16:12.486Z,23.00
2018-06-16T18:18:41.387Z,22.90
2018-06-16T18:21:10.231Z,22.70
2018-06-16T18:23:39.307Z,22.70
2018-06-16T18:26:08.200Z,22.90
2018-06-16T18:28:37.128Z,23.00
2018-06-16T18:31:06.080Z,22.80
2018-06-16T18:33:34.933Z,22.50
2018-06-16T18:36:03.811Z,22.30
2018-06-16T18:38:32.704Z,21.90
2018-06-16T18:41:01.620Z,21.60
2018-06-16T18:43:30.547Z,21.30
2018-06-16T18:45:59.535Z,21.10
2018-06-16T18:48:28.424Z,20.90
2018-06-16T18:50:57.335Z,20.70
2018-06-16T18:53:26.158Z,20.60
2018-06-16T18:55:55.213Z,20.60
2018-06-16T18:58:24.067Z,20.50
2018-06-16T19:00:52.971Z,20.40
2018-06-16T19:03:21.871Z,20.30
2018-06-16T19:05:50.892Z,20.20
2018-06-16T19:10:48.330Z,20.00
2018-06-16T19:13:17.265Z,20.00
2018-06-16T19:15:46.236Z,19.90
2018-06-16T19:18:15.240Z,19.90
2018-06-16T19:20:44.219Z,19.80
2018-06-16T19:23:13.166Z,19.70
2018-06-16T19:25:42.572Z,19.70
2018-06-16T19:28:11.539Z,19.60
2018-06-16T19:30:40.463Z,19.50
2018-06-16T19:33:09.458Z,19.50
2018-06-16T19:35:38.355Z,19.40
2018-06-16T19:38:07.371Z,19.40
2018-06-16T19:40:36.465Z,19.30
2018-06-16T19:43:05.304Z,19.30
2018-06-16T19:45:34.347Z,19.30
2018-06-16T19:48:03.432Z,19.30
2018-06-16T19:50:33.056Z,19.20
2018-06-16T19:55:31.113Z,19.00
2018-06-16T19:58:00.082Z,19.00
2018-06-16T20:00:29.410Z,19.00
2018-06-16T20:02:58.523Z,18.90
2018-06-16T20:05:27.458Z,18.80
2018-06-16T20:10:25.258Z,18.70
2018-06-16T20:12:54.168Z,18.70
2018-06-16T20:15:23.039Z,18.70
2018-06-16T20:17:51.987Z,18.70
2018-06-16T20:20:21.040Z,18.70
2018-06-16T20:22:50.396Z,18.70
2018-06-16T20:25:20.521Z,18.70
2018-06-16T20:27:49.622Z,18.70
2018-06-16T20:30:18.563Z,18.60
2018-06-16T20:32:47.547Z,18.60
2018-06-16T20:35:17.341Z,18.60
2018-06-16T20:37:46.343Z,18.60
2018-06-16T20:40:15.352Z,18.50
2018-06-16T20:42:44.944Z,18.40
2018-06-16T20:45:14.088Z,18.40
2018-06-16T20:47:43.736Z,18.40
2018-06-16T20:50:14.707Z,18.40
2018-06-16T20:52:44.485Z,18.40
2018-06-16T20:55:13.419Z,18.40
2018-06-16T20:57:43.360Z,18.40
2018-06-16T21:02:41.822Z,18.40
2018-06-16T21:05:11.228Z,18.40
2018-06-16T21:07:40.776Z,18.30
2018-06-16T21:12:39.324Z,18.30
2018-06-16T21:15:08.371Z,18.30
2018-06-16T21:17:37.607Z,18.20
2018-06-16T21:20:06.459Z,18.20
2018-06-16T21:22:35.444Z,18.20
2018-06-16T21:25:04.343Z,18.10
2018-06-16T21:27:33.219Z,18.10
2018-06-16T21:32:31.043Z,18.10
2018-06-16T21:35:00.448Z,18.10
2018-06-16T21:37:30.248Z,18.10
2018-06-16T21:39:59.341Z,18.10
2018-06-16T21:42:28.256Z,18.10
2018-06-16T21:44:57.484Z,18.10
2018-06-16T21:47:27.123Z,18.10
2018-06-16T21:49:56.008Z,18.00
2018-06-16T21:52:25.666Z,18.00
2018-06-16T21:54:55.107Z,18.00
2018-06-16T21:57:28.113Z,17.90
2018-06-16T21:59:58.570Z,17.90
2018-06-16T22:02:27.359Z,17.90
2018-06-16T22:04:56.239Z,17.80
2018-06-16T22:07:26.452Z,17.80
2018-06-16T22:09:57.204Z,17.80
2018-06-16T22:12:27.419Z,17.80
2018-06-16T22:14:56.736Z,17.80
2018-06-16T22:17:26.292Z,17.70
2018-06-16T22:20:00.546Z,17.70
2018-06-16T22:22:29.587Z,17.60
2018-06-16T22:24:58.849Z,17.60
2018-06-16T22:27:28.593Z,17.60
2018-06-16T22:29:59.180Z,17.60
2018-06-16T22:32:30.659Z,17.60
2018-06-16T22:35:01.504Z,17.60
2018-06-16T22:37:37.932Z,17.60
2018-06-16T22:40:07.172Z,17.60
2018-06-16T22:42:36.048Z,17.50
2018-06-16T22:45:05.288Z,17.50
2018-06-16T22:47:34.133Z,17.50
2018-06-16T22:50:03.108Z,17.50
2018-06-16T22:52:32.090Z,17.40
2018-06-16T22:55:00.983Z,17.40
2018-06-16T22:57:29.836Z,17.30
2018-06-16T22:59:58.763Z,17.30
2018-06-16T23:02:27.608Z,17.20
2018-06-16T23:07:24.983Z,17.20
2018-06-16T23:09:55.164Z,17.20
2018-06-16T23:14:52.604Z,17.10
2018-06-16T23:17:21.512Z,17.10
2018-06-16T23:19:50.432Z,17.20
2018-06-16T23:22:19.518Z,17.20
2018-06-16T23:24:48.336Z,17.10
2018-06-16T23:32:14.396Z,17.10
2018-06-16T23:37:11.740Z,17.10
2018-06-16T23:39:40.655Z,17.00
2018-06-16T23:44:37.966Z,17.00
2018-06-16T23:47:06.910Z,17.00
2018-06-16T23:52:04.758Z,16.90
2018-06-16T23:54:33.695Z,16.90
